createdAt,value
2023-04-04T00:01:01.641Z,13.40
2023-04-04T00:02:24.293Z,12.50
2023-04-04T00:03:47.134Z,14.00
2023-04-04T00:05:12.864Z,16.60
2023-04-04T00:06:43.775Z,14.50
2023-04-04T00:08:04.909Z,13.50
2023-04-04T00:09:25.930Z,14.50
2023-04-04T00:10:58.575Z,11.80
2023-04-04T00:12:31.269Z,14.10
2023-04-04T00:13:45.514Z,11.60
2023-04-04T00:14:56.418Z,8.90
2023-04-04T00:16:29.031Z,9.10
2023-04-04T00:18:01.673Z,11.20
2023-04-04T00:19:16.723Z,9.70
2023-04-04T00:20:42.788Z,8.00
2023-04-04T00:22:15.546Z,9.70
2023-04-04T00:23:48.261Z,6.90
2023-04-04T00:25:17.019Z,7.60
2023-04-04T00:26:36.942Z,8.90
2023-04-04T00:27:51.940Z,7.20
2023-04-04T00:29:07.051Z,7.70
2023-04-04T00:30:27.157Z,8.30
2023-04-04T00:31:52.605Z,9.20
2023-04-04T00:33:05.995Z,7.20
2023-04-04T00:34:21.213Z,7.20
2023-04-04T00:35:52.639Z,6.10
2023-04-04T00:36:47.345Z,6.30
2023-04-04T00:38:19.743Z,5.90
2023-04-04T00:39:33.147Z,7.10
2023-04-04T00:41:04.623Z,5.90
2023-04-04T00:42:12.479Z,6.40
2023-04-04T00:43:45.030Z,6.90
2023-04-04T00:44:37.317Z,6.70
2023-04-04T00:46:10.009Z,7.80
2023-04-04T00:47:42.378Z,8.30
2023-04-04T00:49:14.622Z,8.60
2023-04-04T00:50:47.371Z,7.90
2023-04-04T00:51:59.916Z,6.00
2023-04-04T00:53:21.554Z,7.30
2023-04-04T00:54:28.968Z,6.70
2023-04-04T00:55:40.973Z,5.90
2023-04-04T00:56:57.401Z,5.70
2023-04-04T00:58:06.911Z,6.60
2023-04-04T00:59:04.528Z,8.10
2023-04-04T01:00:25.784Z,5.70
2023-04-04T01:01:47.331Z,6.90
2023-04-04T01:03:19.908Z,7.10
2023-04-04T01:04:40.142Z,6.60
2023-04-04T01:05:51.478Z,4.90
2023-04-04T01:07:01.705Z,8.10
2023-04-04T01:08:22.975Z,6.10
2023-04-04T01:09:55.529Z,6.50
2023-04-04T01:11:27.374Z,6.40
2023-04-04T01:12:42.993Z,6.70
2023-04-04T01:13:41.731Z,5.50
2023-04-04T01:15:08.301Z,7.70
2023-04-04T01:16:30.715Z,6.20
2023-04-04T01:17:43.353Z,6.10
2023-04-04T01:19:06.369Z,6.60
2023-04-04T01:20:26.201Z,7.30
2023-04-04T01:22:01.519Z,6.70
2023-04-04T01:23:17.466Z,6.80
2023-04-04T01:24:52.088Z,5.00
2023-04-04T01:26:08.400Z,7.80
2023-04-04T01:27:23.749Z,6.50
2023-04-04T01:28:56.431Z,6.30
2023-04-04T01:29:57.674Z,6.10
2023-04-04T01:31:11.820Z,6.20
2023-04-04T01:32:33.017Z,5.70
2023-04-04T01:34:11.402Z,6.70
2023-04-04T01:35:53.544Z,6.10
2023-04-04T01:37:28.952Z,6.20
2023-04-04T01:38:53.401Z,5.90
2023-04-04T01:40:08.708Z,8.00
2023-04-04T01:41:41.251Z,7.80
2023-04-04T01:42:56.755Z,7.80
2023-04-04T01:44:29.300Z,6.20
2023-04-04T01:46:02.298Z,6.20
2023-04-04T01:47:24.838Z,5.90
2023-04-04T01:49:21.454Z,8.00
2023-04-04T01:50:42.270Z,6.00
2023-04-04T01:52:07.538Z,6.30
2023-04-04T01:53:31.647Z,5.50
2023-04-04T01:55:04.108Z,5.50
2023-04-04T01:56:16.822Z,7.30
2023-04-04T01:57:34.630Z,5.20
2023-04-04T01:58:37.540Z,8.20
2023-04-04T02:00:10.174Z,7.20
2023-04-04T02:01:42.947Z,6.30
2023-04-04T02:03:01.281Z,4.90
2023-04-04T02:04:22.592Z,5.60
2023-04-04T02:05:06.949Z,5.70
2023-04-04T02:06:39.468Z,5.00
2023-04-04T02:08:11.961Z,5.20
2023-04-04T02:09:30.577Z,5.40
2023-04-04T02:10:55.593Z,7.20
2023-04-04T02:12:28.296Z,6.60
2023-04-04T02:14:00.909Z,9.10
2023-04-04T02:15:22.001Z,6.10
2023-04-04T02:16:39.840Z,5.70
2023-04-04T02:18:12.560Z,6.10
2023-04-04T02:19:45.071Z,5.10
2023-04-04T02:21:07.627Z,5.60
2023-04-04T02:23:36.970Z,6.60
2023-04-04T02:24:54.074Z,5.50
2023-04-04T02:26:09.619Z,6.70
2023-04-04T02:27:34.534Z,7.60
2023-04-04T02:29:07.546Z,8.70
2023-04-04T02:31:34.064Z,7.00
2023-04-04T02:33:07.987Z,6.90
2023-04-04T02:34:30.999Z,5.60
2023-04-04T02:35:41.869Z,6.30
2023-04-04T02:36:56.822Z,6.50
2023-04-04T02:38:30.065Z,6.70
2023-04-04T02:40:02.641Z,8.20
2023-04-04T02:41:35.189Z,9.60
2023-04-04T02:43:07.881Z,9.40
2023-04-04T02:44:14.747Z,5.90
2023-04-04T02:45:48.620Z,5.30
2023-04-04T02:47:21.516Z,4.80
2023-04-04T02:48:37.908Z,7.60
2023-04-04T02:51:34.064Z,5.40
2023-04-04T02:52:59.812Z,6.30
2023-04-04T02:55:44.141Z,5.90
2023-04-04T02:57:18.582Z,6.60
2023-04-04T02:58:43.968Z,6.50
2023-04-04T03:00:06.837Z,8.10
2023-04-04T03:01:40.588Z,7.80
2023-04-04T03:03:00.883Z,6.70
2023-04-04T03:04:28.302Z,3.00
2023-04-04T03:05:52.228Z,6.60
2023-04-04T03:12:51.395Z,6.10
2023-04-04T03:13:48.748Z,5.20
2023-04-04T03:15:00.183Z,6.20
2023-04-04T03:16:23.444Z,4.80
2023-04-04T03:17:49.010Z,6.80
2023-04-04T03:18:50.179Z,6.10
2023-04-04T03:19:57.101Z,6.00
2023-04-04T03:20:51.926Z,5.10
2023-04-04T03:21:44.300Z,7.00
2023-04-04T03:22:26.628Z,4.10
2023-04-04T03:23:31.938Z,4.60
2023-04-04T03:24:47.538Z,8.10
2023-04-04T03:25:26.108Z,8.80
2023-04-04T03:26:21.969Z,5.40
2023-04-04T03:27:14.442Z,5.10
2023-04-04T03:28:09.583Z,5.60
2023-04-04T03:29:19.976Z,4.70
2023-04-04T03:30:06.920Z,5.70
2023-04-04T03:31:07.473Z,5.30
2023-04-04T03:32:22.132Z,8.70
2023-04-04T03:33:18.476Z,7.00
2023-04-04T03:34:15.176Z,6.50
2023-04-04T03:34:57.693Z,6.10
2023-04-04T03:35:59.648Z,5.60
2023-04-04T03:36:34.958Z,5.80
2023-04-04T03:37:34.983Z,6.10
2023-04-04T03:38:15.113Z,5.00
2023-04-04T03:39:10.502Z,7.20
2023-04-04T03:40:17.308Z,6.30
2023-04-04T03:41:13.905Z,7.10
2023-04-04T03:42:16.318Z,6.30
2023-04-04T03:43:24.734Z,7.10
2023-04-04T03:44:19.985Z,4.80
2023-04-04T03:45:06.867Z,5.10
2023-04-04T03:45:49.600Z,7.40
2023-04-04T03:46:52.854Z,7.40
2023-04-04T03:48:16.346Z,5.20
2023-04-04T03:49:15.466Z,7.50
2023-04-04T03:50:38.175Z,6.00
2023-04-04T03:52:00.976Z,6.20
2023-04-04T03:53:33.633Z,5.90
2023-04-04T03:54:29.294Z,6.00
2023-04-04T03:55:29.172Z,6.90
2023-04-04T03:56:21.685Z,6.20
2023-04-04T03:57:40.087Z,5.90
2023-04-04T03:58:41.808Z,5.80
2023-04-04T04:01:06.257Z,7.20
2023-04-04T04:02:46.989Z,6.40
2023-04-04T04:03:39.443Z,6.80
2023-04-04T04:04:19.455Z,6.20
2023-04-04T04:05:24.375Z,6.10
2023-04-04T04:06:24.609Z,6.30
2023-04-04T04:07:22.462Z,6.20
2023-04-04T04:08:14.574Z,7.70
2023-04-04T04:08:58.364Z,5.50
2023-04-04T04:09:53.763Z,7.30
2023-04-04T04:10:54.486Z,7.20
2023-04-04T04:11:58.935Z,7.00
2023-04-04T04:12:56.720Z,5.10
2023-04-04T04:14:02.364Z,6.30
2023-04-04T04:15:02.512Z,7.10
2023-04-04T04:15:40.759Z,6.00
2023-04-04T04:16:50.350Z,7.70
2023-04-04T04:17:48.067Z,6.00
2023-04-04T04:19:20.637Z,6.00
2023-04-04T04:20:11.941Z,6.70
2023-04-04T04:21:29.799Z,7.20
2023-04-04T04:22:41.658Z,7.30
2023-04-04T04:23:46.991Z,6.70
2023-04-04T04:25:19.546Z,8.40
2023-04-04T04:26:25.741Z,5.10
2023-04-04T04:27:38.041Z,5.80
2023-04-04T04:28:59.691Z,5.30
2023-04-04T04:29:57.518Z,6.20
2023-04-04T04:30:53.508Z,5.30
2023-04-04T04:31:46.119Z,6.70
2023-04-04T04:32:46.368Z,9.40
2023-04-04T04:33:59.161Z,5.10
2023-04-04T04:35:14.032Z,7.10
2023-04-04T04:36:07.223Z,6.20
2023-04-04T04:37:23.119Z,6.00
2023-04-04T04:38:11.151Z,6.40
2023-04-04T04:39:01.153Z,6.20
2023-04-04T04:40:05.705Z,5.00
2023-04-04T04:41:20.547Z,5.60
2023-04-04T04:42:34.205Z,5.80
2023-04-04T04:43:46.496Z,6.80
2023-04-04T04:44:32.042Z,6.80
2023-04-04T04:45:56.352Z,5.20
2023-04-04T04:47:09.936Z,4.80
2023-04-04T04:47:58.096Z,6.80
2023-04-04T04:49:00.338Z,7.90
2023-04-04T04:50:26.847Z,5.00
2023-04-04T04:51:12.029Z,5.10
2023-04-04T04:52:37.536Z,8.70
2023-04-04T04:54:01.327Z,5.90
2023-04-04T04:55:15.304Z,6.40
2023-04-04T04:56:19.137Z,4.90
2023-04-04T04:57:17.899Z,8.70
2023-04-04T04:58:15.944Z,7.80
2023-04-04T04:59:21.496Z,6.20
2023-04-04T05:00:27.272Z,6.20
2023-04-04T05:01:43.180Z,5.50
2023-04-04T05:02:37.042Z,5.40
2023-04-04T05:03:42.210Z,5.30
2023-04-04T05:04:48.316Z,6.50
2023-04-04T05:06:00.647Z,5.40
2023-04-04T05:07:07.316Z,5.00
2023-04-04T05:08:23.558Z,6.30
2023-04-04T05:09:36.028Z,5.40
2023-04-04T05:10:50.857Z,5.50
2023-04-04T05:11:47.270Z,5.80
2023-04-04T05:12:28.148Z,5.30
2023-04-04T05:14:19.008Z,5.70
2023-04-04T05:15:29.561Z,5.80
2023-04-04T05:16:50.661Z,6.20
2023-04-04T05:17:34.937Z,5.80
2023-04-04T05:18:54.708Z,8.50
2023-04-04T05:19:59.687Z,8.00
2023-04-04T05:21:27.953Z,7.20
2023-04-04T05:22:45.328Z,9.60
2023-04-04T05:23:57.579Z,10.10
2023-04-04T05:25:26.616Z,8.40
2023-04-04T05:26:42.122Z,8.40
2023-04-04T05:28:05.489Z,8.70
2023-04-04T05:29:05.693Z,9.40
2023-04-04T05:30:26.658Z,11.40
2023-04-04T05:31:19.224Z,12.60
2023-04-04T05:32:32.878Z,8.90
2023-04-04T05:33:44.951Z,8.10
2023-04-04T05:35:15.807Z,9.50
2023-04-04T05:36:10.987Z,9.30
2023-04-04T05:36:57.240Z,9.40
2023-04-04T05:37:50.799Z,12.00
2023-04-04T05:39:00.829Z,9.10
2023-04-04T05:39:58.589Z,10.20
2023-04-04T05:41:24.282Z,7.40
2023-04-04T05:42:28.695Z,9.30
2023-04-04T05:43:56.244Z,9.20
2023-04-04T05:45:00.383Z,8.40
2023-04-04T05:45:55.749Z,8.00
2023-04-04T05:47:13.797Z,8.80
2023-04-04T05:48:16.508Z,11.10
2023-04-04T05:49:27.185Z,7.40
2023-04-04T05:50:10.880Z,7.60
2023-04-04T05:51:05.326Z,8.70
2023-04-04T05:52:21.055Z,9.00
2023-04-04T05:53:35.186Z,8.10
2023-04-04T05:54:50.799Z,8.00
2023-04-04T05:55:45.272Z,9.80
2023-04-04T05:56:56.202Z,8.60
2023-04-04T05:58:28.937Z,7.90
2023-04-04T05:59:50.937Z,8.50
2023-04-04T06:01:14.779Z,7.10
2023-04-04T06:02:47.331Z,8.40
2023-04-04T06:04:19.867Z,7.20
2023-04-04T06:05:23.700Z,9.30
2023-04-04T06:06:02.479Z,8.40
2023-04-04T06:07:25.279Z,8.40
2023-04-04T06:08:37.590Z,8.70
2023-04-04T06:10:01.050Z,7.90
2023-04-04T06:10:59.306Z,8.30
2023-04-04T06:12:31.946Z,6.90
2023-04-04T06:14:04.619Z,8.50
2023-04-04T06:15:26.133Z,10.10
2023-04-04T06:16:34.994Z,6.30
2023-04-04T06:17:59.530Z,7.20
2023-04-04T06:19:21.831Z,6.30
2023-04-04T06:20:24.247Z,8.40
2023-04-04T06:21:39.245Z,6.70
2023-04-04T06:23:03.675Z,6.40
2023-04-04T06:24:14.849Z,8.80
2023-04-04T06:25:47.687Z,9.00
2023-04-04T06:27:01.570Z,6.30
2023-04-04T06:28:15.282Z,7.60
2023-04-04T06:29:25.584Z,7.30
2023-04-04T06:30:17.599Z,8.10
2023-04-04T06:31:35.276Z,7.50
2023-04-04T06:32:58.275Z,9.80
2023-04-04T06:34:13.467Z,7.30
2023-04-04T06:35:37.534Z,6.60
2023-04-04T06:36:55.340Z,6.50
2023-04-04T06:38:16.210Z,7.20
2023-04-04T06:39:31.658Z,6.70
2023-04-04T06:40:55.998Z,6.60
2023-04-04T06:42:28.445Z,7.50
2023-04-04T06:43:50.920Z,7.80
2023-04-04T06:45:23.489Z,5.80
2023-04-04T06:46:24.721Z,5.00
2023-04-04T06:47:42.399Z,7.20
2023-04-04T06:49:06.094Z,7.80
2023-04-04T06:50:23.479Z,6.40
2023-04-04T06:51:35.462Z,6.40
2023-04-04T06:52:32.963Z,6.30
2023-04-04T06:53:55.516Z,6.60
2023-04-04T06:56:24.393Z,7.40
2023-04-04T06:57:45.640Z,6.30
2023-04-04T06:58:50.446Z,6.90
2023-04-04T06:59:47.463Z,6.20
2023-04-04T07:01:20.212Z,8.40
2023-04-04T07:02:34.404Z,6.40
2023-04-04T07:04:07.037Z,6.10
2023-04-04T07:05:39.776Z,5.10
2023-04-04T07:06:57.770Z,6.90
2023-04-04T07:07:56.284Z,5.10
2023-04-04T07:09:29.712Z,6.80
2023-04-04T07:10:28.228Z,5.20
2023-04-04T07:11:25.470Z,6.50
2023-04-04T07:12:49.068Z,6.80
2023-04-04T07:14:11.626Z,7.80
2023-04-04T07:16:55.805Z,4.40
2023-04-04T07:18:28.387Z,4.50
2023-04-04T07:19:40.530Z,6.20
2023-04-04T07:20:43.606Z,3.80
2023-04-04T07:22:16.372Z,7.70
2023-04-04T07:24:50.108Z,5.70
2023-04-04T07:26:22.603Z,5.40
2023-04-04T07:28:02.341Z,7.20
2023-04-04T07:29:42.629Z,4.40
2023-04-04T07:31:15.368Z,3.90
2023-04-04T07:32:40.739Z,5.70
2023-04-04T07:34:15.919Z,3.30
2023-04-04T07:35:48.501Z,3.20
2023-04-04T07:37:21.066Z,3.70
2023-04-04T07:38:53.600Z,4.50
2023-04-04T07:40:26.372Z,4.30
2023-04-04T07:42:50.969Z,5.40
2023-04-04T07:45:48.045Z,3.60
2023-04-04T07:47:20.726Z,5.20
2023-04-04T07:48:42.279Z,4.00
2023-04-04T07:50:08.209Z,4.20
2023-04-04T07:51:31.270Z,3.30
2023-04-04T07:53:02.450Z,4.20
2023-04-04T07:54:35.044Z,3.70
2023-04-04T07:56:08.829Z,2.50
2023-04-04T07:57:19.251Z,5.10
2023-04-04T07:58:25.227Z,3.30
2023-04-04T07:59:42.153Z,2.90
2023-04-04T08:00:35.626Z,3.10
2023-04-04T08:02:08.060Z,4.20
2023-04-04T08:03:29.726Z,2.60
2023-04-04T08:04:38.074Z,3.00
2023-04-04T08:06:10.855Z,2.60
2023-04-04T08:07:26.331Z,3.30
2023-04-04T08:08:25.044Z,2.80
2023-04-04T08:09:42.024Z,3.20
2023-04-04T08:10:59.900Z,2.10
2023-04-04T08:12:32.560Z,3.90
2023-04-04T08:14:04.721Z,4.50
2023-04-04T08:15:02.487Z,2.10
2023-04-04T08:15:59.344Z,3.10
2023-04-04T08:17:04.755Z,2.10
2023-04-04T08:18:30.123Z,2.20
2023-04-04T08:19:08.636Z,3.00
2023-04-04T08:20:14.868Z,2.20
2023-04-04T08:21:15.012Z,2.10
2023-04-04T08:21:58.141Z,2.90
2023-04-04T08:23:22.151Z,4.80
2023-04-04T08:24:38.084Z,2.40
2023-04-04T08:25:22.635Z,3.00
2023-04-04T08:26:03.051Z,3.10
2023-04-04T08:27:04.621Z,3.20
2023-04-04T08:28:21.524Z,2.80
2023-04-04T08:28:59.837Z,3.10
2023-04-04T08:29:54.881Z,2.50
2023-04-04T08:31:01.614Z,2.10
2023-04-04T08:32:34.306Z,4.90
2023-04-04T08:33:12.467Z,3.30
2023-04-04T08:34:14.890Z,2.10
2023-04-04T08:35:32.114Z,1.90
2023-04-04T08:36:35.779Z,3.80
2023-04-04T08:37:35.345Z,3.10
2023-04-04T08:38:50.407Z,2.60
2023-04-04T08:40:02.687Z,2.30
2023-04-04T08:41:25.132Z,2.30
2023-04-04T08:42:36.682Z,3.80
2023-04-04T08:43:54.451Z,3.60
2023-04-04T08:45:08.677Z,2.70
2023-04-04T08:46:28.645Z,3.40
2023-04-04T08:47:38.477Z,3.50
2023-04-04T08:48:30.190Z,4.10
2023-04-04T08:50:02.898Z,2.90
2023-04-04T08:51:21.332Z,2.30
2023-04-04T08:52:33.800Z,3.90
2023-04-04T08:53:33.934Z,2.00
2023-04-04T08:54:44.123Z,2.30
2023-04-04T08:55:59.575Z,2.90
2023-04-04T08:57:15.759Z,3.10
2023-04-04T08:57:59.287Z,3.50
2023-04-04T08:58:58.926Z,2.20
2023-04-04T09:00:25.193Z,2.80
2023-04-04T09:01:33.085Z,2.90
2023-04-04T09:02:59.713Z,3.70
2023-04-04T09:04:14.956Z,3.50
2023-04-04T09:05:47.561Z,2.30
2023-04-04T09:07:18.836Z,2.90
2023-04-04T09:08:33.830Z,2.50
2023-04-04T09:09:29.442Z,2.90
2023-04-04T09:10:54.796Z,5.70
2023-04-04T09:12:17.143Z,3.50
2023-04-04T09:13:41.278Z,1.70
2023-04-04T09:14:47.138Z,2.10
2023-04-04T09:15:54.559Z,2.90
2023-04-04T09:17:09.042Z,2.70
2023-04-04T09:18:23.812Z,2.40
2023-04-04T09:19:26.419Z,2.10
2023-04-04T09:20:20.494Z,2.60
2023-04-04T09:21:28.638Z,1.70
2023-04-04T09:22:47.133Z,2.00
2023-04-04T09:24:17.506Z,2.70
2023-04-04T09:25:09.589Z,3.10
2023-04-04T09:26:24.403Z,2.50
2023-04-04T09:27:07.992Z,2.30
2023-04-04T09:28:05.390Z,3.00
2023-04-04T09:28:57.938Z,4.80
2023-04-04T09:30:24.669Z,2.10
2023-04-04T09:31:19.486Z,2.40
2023-04-04T09:32:22.391Z,2.30
2023-04-04T09:33:38.406Z,2.80
2023-04-04T09:34:49.184Z,4.10
2023-04-04T09:35:28.431Z,3.40
2023-04-04T09:36:34.617Z,3.40
2023-04-04T09:37:50.269Z,4.50
2023-04-04T09:38:48.827Z,2.60
2023-04-04T09:39:59.473Z,4.60
2023-04-04T09:40:55.694Z,3.80
2023-04-04T09:42:08.293Z,3.80
2023-04-04T09:43:04.722Z,2.90
2023-04-04T09:44:34.171Z,3.80
2023-04-04T09:45:42.286Z,3.30
2023-04-04T09:46:52.594Z,3.50
2023-04-04T09:48:12.694Z,4.50
2023-04-04T09:49:20.125Z,3.00
2023-04-04T09:50:17.507Z,2.80
2023-04-04T09:51:50.015Z,3.00
2023-04-04T09:53:00.678Z,4.30
2023-04-04T09:53:56.433Z,3.30
2023-04-04T09:55:19.273Z,2.80
2023-04-04T09:56:34.653Z,2.90
2023-04-04T09:57:20.604Z,4.00
2023-04-04T09:58:09.070Z,3.90
2023-04-04T09:59:13.656Z,2.60
2023-04-04T10:00:38.569Z,3.20
2023-04-04T10:01:39.794Z,2.10
2023-04-04T10:02:34.707Z,3.00
2023-04-04T10:04:01.117Z,2.50
2023-04-04T10:05:34.079Z,3.10
2023-04-04T10:07:51.282Z,6.30
2023-04-04T10:08:58.824Z,4.50
2023-04-04T10:10:23.815Z,3.50
2023-04-04T10:11:25.212Z,4.10
2023-04-04T10:12:34.127Z,6.00
2023-04-04T10:14:02.651Z,4.10
2023-04-04T10:15:09.480Z,2.50
2023-04-04T10:16:44.298Z,2.90
2023-04-04T10:18:16.913Z,2.60
2023-04-04T10:19:49.602Z,2.20
2023-04-04T10:21:15.242Z,4.20
2023-04-04T10:22:48.663Z,2.50
2023-04-04T10:23:47.319Z,2.50
2023-04-04T10:24:44.330Z,2.60
2023-04-04T10:26:04.817Z,4.10
2023-04-04T10:27:22.784Z,2.80
2023-04-04T10:28:54.180Z,3.80
2023-04-04T10:30:09.526Z,3.60
2023-04-04T10:31:45.267Z,4.20
2023-04-04T10:33:13.120Z,2.40
2023-04-04T10:34:49.362Z,2.40
2023-04-04T10:36:22.139Z,3.10
2023-04-04T10:37:45.016Z,3.00
2023-04-04T10:39:23.453Z,3.00
2023-04-04T10:40:25.306Z,4.20
2023-04-04T10:41:49.886Z,3.00
2023-04-04T10:43:11.698Z,2.30
2023-04-04T10:44:34.588Z,4.30
2023-04-04T10:45:53.505Z,3.10
2023-04-04T10:47:08.648Z,3.30
2023-04-04T10:48:27.606Z,6.40
2023-04-04T10:49:44.988Z,3.80
2023-04-04T10:51:10.634Z,4.50
2023-04-04T10:52:26.967Z,3.70
2023-04-04T10:53:42.901Z,4.40
2023-04-04T10:54:33.553Z,3.40
2023-04-04T10:55:49.485Z,3.60
2023-04-04T10:57:22.009Z,2.80
2023-04-04T10:58:15.927Z,3.60
2023-04-04T10:59:53.881Z,3.40
2023-04-04T11:01:22.336Z,8.40
2023-04-04T11:03:01.566Z,3.90
2023-04-04T11:04:32.630Z,5.50
2023-04-04T11:06:12.618Z,2.50
2023-04-04T11:07:44.623Z,3.50
2023-04-04T11:09:13.846Z,3.50
2023-04-04T11:10:55.733Z,2.80
2023-04-04T11:12:36.917Z,2.90
2023-04-04T11:14:06.876Z,2.10
2023-04-04T11:15:35.908Z,2.50
2023-04-04T11:16:58.948Z,2.30
2023-04-04T11:18:33.314Z,2.50
2023-04-04T11:20:06.952Z,2.90
2023-04-04T11:21:06.988Z,3.30
2023-04-04T11:22:39.494Z,4.70
2023-04-04T11:23:58.500Z,2.80
2023-04-04T11:25:10.948Z,5.30
2023-04-04T11:26:37.201Z,3.60
2023-04-04T11:27:50.457Z,3.30
2023-04-04T11:29:27.680Z,1.90
2023-04-04T11:31:00.309Z,3.70
2023-04-04T11:32:35.555Z,3.30
2023-04-04T11:33:42.860Z,3.30
2023-04-04T11:34:39.393Z,3.10
2023-04-04T11:35:51.449Z,2.50
2023-04-04T11:37:04.914Z,4.40
2023-04-04T11:38:33.662Z,4.20
2023-04-04T11:39:50.043Z,2.60
2023-04-04T11:41:22.591Z,3.30
2023-04-04T11:42:48.126Z,3.20
2023-04-04T11:43:38.771Z,2.50
2023-04-04T11:45:05.251Z,2.50
2023-04-04T11:45:58.126Z,2.60
2023-04-04T11:46:42.558Z,4.60
2023-04-04T11:47:50.023Z,4.20
2023-04-04T11:49:12.468Z,2.40
2023-04-04T11:50:20.133Z,3.60
2023-04-04T11:51:10.913Z,5.30
2023-04-04T11:52:26.232Z,6.50
2023-04-04T11:53:27.858Z,6.00
2023-04-04T11:54:31.711Z,5.30
2023-04-04T11:55:57.061Z,6.50
2023-04-04T11:56:41.684Z,5.10
2023-04-04T11:58:17.473Z,3.70
2023-04-04T11:59:23.323Z,3.00
2023-04-04T12:00:15.359Z,3.80
2023-04-04T12:01:30.548Z,3.10
2023-04-04T12:02:41.526Z,3.40
2023-04-04T12:03:47.140Z,4.00
2023-04-04T12:05:19.837Z,3.20
2023-04-04T12:06:42.038Z,3.30
2023-04-04T12:08:07.622Z,5.50
2023-04-04T12:09:18.261Z,3.70
2023-04-04T12:10:33.934Z,4.30
2023-04-04T12:11:23.842Z,2.90
2023-04-04T12:12:45.300Z,2.80
2023-04-04T12:14:01.563Z,3.00
2023-04-04T12:15:33.258Z,2.80
2023-04-04T12:16:55.623Z,2.60
2023-04-04T12:18:10.031Z,2.40
2023-04-04T12:19:20.798Z,5.30
2023-04-04T12:20:53.503Z,3.10
2023-04-04T12:21:56.994Z,4.60
2023-04-04T12:22:55.317Z,3.80
2023-04-04T12:23:55.252Z,3.90
2023-04-04T12:25:09.143Z,3.90
2023-04-04T12:26:34.781Z,2.80
2023-04-04T12:28:07.160Z,3.50
2023-04-04T12:29:22.402Z,4.70
2023-04-04T12:30:46.071Z,3.80
2023-04-04T12:32:18.939Z,2.90
2023-04-04T12:33:08.417Z,3.30
2023-04-04T12:34:41.020Z,3.70
2023-04-04T12:35:44.139Z,3.30
2023-04-04T12:36:42.285Z,3.90
2023-04-04T12:38:05.839Z,4.00
2023-04-04T12:39:41.207Z,3.40
2023-04-04T12:41:14.705Z,4.00
2023-04-04T12:42:53.473Z,4.10
2023-04-04T12:44:19.115Z,3.60
2023-04-04T12:45:51.688Z,3.90
2023-04-04T12:46:48.835Z,3.60
2023-04-04T12:48:01.215Z,3.50
2023-04-04T12:49:14.044Z,3.40
2023-04-04T12:50:46.985Z,4.20
2023-04-04T12:53:27.582Z,3.90
2023-04-04T12:55:06.872Z,3.10
2023-04-04T12:55:49.193Z,2.60
2023-04-04T12:56:31.452Z,5.20
2023-04-04T12:57:18.881Z,2.90
2023-04-04T12:59:39.532Z,5.00
2023-04-04T13:00:48.523Z,3.30
2023-04-04T13:01:24.244Z,3.70
2023-04-04T13:02:42.444Z,3.20
2023-04-04T13:03:27.563Z,3.40
2023-04-04T13:04:38.899Z,4.00
2023-04-04T13:05:36.418Z,4.40
2023-04-04T13:06:47.808Z,6.90
2023-04-04T13:08:05.446Z,2.60
2023-04-04T13:09:08.053Z,3.70
2023-04-04T13:10:33.756Z,3.70
2023-04-04T13:11:50.057Z,6.70
2023-04-04T13:13:02.774Z,3.80
2023-04-04T13:14:16.534Z,3.70
2023-04-04T13:15:27.788Z,3.00
2023-04-04T13:16:33.686Z,3.80
2023-04-04T13:17:09.013Z,3.20
2023-04-04T13:18:25.949Z,4.10
2023-04-04T13:19:04.409Z,3.30
2023-04-04T13:20:18.643Z,3.60
2023-04-04T13:21:22.332Z,5.20
2023-04-04T13:22:15.851Z,4.10
2023-04-04T13:23:18.020Z,3.40
2023-04-04T13:24:19.008Z,5.00
2023-04-04T13:25:51.601Z,4.60
2023-04-04T13:27:24.282Z,3.00
2023-04-04T13:28:48.319Z,3.30
2023-04-04T13:29:53.150Z,2.10
2023-04-04T13:30:48.388Z,2.60
2023-04-04T13:31:49.228Z,2.80
2023-04-04T13:32:35.756Z,2.70
2023-04-04T13:33:25.502Z,3.40
2023-04-04T13:34:53.032Z,2.90
2023-04-04T13:36:00.374Z,3.10
2023-04-04T13:37:13.074Z,4.50
2023-04-04T13:38:26.967Z,3.40
2023-04-04T13:39:48.256Z,5.00
2023-04-04T13:41:09.600Z,3.00
2023-04-04T13:42:32.282Z,3.30
2023-04-04T13:43:47.850Z,3.40
2023-04-04T13:44:59.025Z,3.30
2023-04-04T13:46:33.239Z,3.20
2023-04-04T13:48:05.927Z,3.00
2023-04-04T13:49:39.601Z,4.30
2023-04-04T13:51:04.563Z,5.10
2023-04-04T13:52:01.631Z,5.20
2023-04-04T13:52:46.806Z,5.30
2023-04-04T13:54:01.035Z,4.40
2023-04-04T13:55:07.742Z,5.60
2023-04-04T13:56:18.932Z,5.20
2023-04-04T13:57:46.047Z,4.70
2023-04-04T13:59:11.648Z,4.40
2023-04-04T14:00:44.404Z,4.60
2023-04-04T14:01:53.612Z,3.90
2023-04-04T14:02:57.139Z,3.80
2023-04-04T14:04:00.706Z,5.30
2023-04-04T14:05:30.682Z,5.10
2023-04-04T14:06:55.441Z,4.40
2023-04-04T14:07:48.052Z,7.20
2023-04-04T14:08:46.575Z,6.30
2023-04-04T14:10:19.360Z,5.30
2023-04-04T14:11:45.005Z,5.50
2023-04-04T14:13:06.487Z,4.50
2023-04-04T14:14:12.081Z,5.60
2023-04-04T14:15:33.623Z,3.00
2023-04-04T14:16:48.937Z,5.50
2023-04-04T14:17:53.082Z,5.80
2023-04-04T14:18:52.592Z,5.20
2023-04-04T14:19:48.189Z,4.20
2023-04-04T14:20:46.043Z,5.80
2023-04-04T14:22:04.677Z,6.20
2023-04-04T14:23:37.317Z,3.60
2023-04-04T14:25:08.731Z,3.90
2023-04-04T14:26:04.196Z,3.80
2023-04-04T14:27:14.504Z,5.10
2023-04-04T14:28:46.997Z,5.20
2023-04-04T14:29:38.127Z,7.80
2023-04-04T14:30:30.919Z,5.20
2023-04-04T14:31:30.976Z,7.60
2023-04-04T14:32:25.247Z,5.70
2023-04-04T14:33:51.018Z,5.20
2023-04-04T14:35:05.905Z,5.30
2023-04-04T14:35:57.578Z,7.50
2023-04-04T14:37:05.666Z,8.80
2023-04-04T14:38:38.246Z,5.30
2023-04-04T14:39:59.742Z,5.10
2023-04-04T14:41:14.678Z,5.50
2023-04-04T14:42:32.851Z,5.40
2023-04-04T14:43:57.935Z,6.10
2023-04-04T14:45:04.611Z,8.20
2023-04-04T14:46:02.910Z,6.90
2023-04-04T14:47:35.694Z,6.50
2023-04-04T14:48:44.175Z,5.20
2023-04-04T14:50:03.739Z,4.70
2023-04-04T14:50:53.920Z,4.80
2023-04-04T14:52:18.192Z,6.50
2023-04-04T14:53:32.093Z,8.30
2023-04-04T14:54:53.582Z,5.70
2023-04-04T14:56:08.092Z,6.30
2023-04-04T14:57:32.109Z,5.90
2023-04-04T14:58:56.730Z,4.90
2023-04-04T15:00:22.936Z,7.00
2023-04-04T15:01:38.207Z,4.70
2023-04-04T15:02:53.305Z,7.50
2023-04-04T15:04:01.531Z,6.80
2023-04-04T15:05:26.966Z,5.20
2023-04-04T15:06:38.826Z,8.10
2023-04-04T15:07:56.740Z,8.70
2023-04-04T15:09:11.120Z,5.60
2023-04-04T15:10:42.734Z,9.20
2023-04-04T15:12:10.256Z,6.70
2023-04-04T15:13:02.691Z,6.10
2023-04-04T15:14:24.040Z,5.10
2023-04-04T15:15:18.585Z,7.70
2023-04-04T15:16:32.328Z,6.10
2023-04-04T15:17:33.333Z,4.80
2023-04-04T15:18:45.045Z,5.50
2023-04-04T15:20:12.991Z,6.00
2023-04-04T15:21:28.616Z,4.60
2023-04-04T15:23:01.086Z,7.50
2023-04-04T15:24:16.287Z,6.60
2023-04-04T15:25:49.091Z,6.60
2023-04-04T15:27:21.758Z,6.70
2023-04-04T15:28:17.056Z,9.60
2023-04-04T15:29:49.598Z,10.50
2023-04-04T15:31:07.771Z,8.00
2023-04-04T15:32:03.426Z,8.20
2023-04-04T15:33:25.973Z,5.00
2023-04-04T15:34:58.714Z,6.40
2023-04-04T15:36:23.033Z,5.00
2023-04-04T15:37:33.549Z,5.40
2023-04-04T15:38:57.068Z,8.50
2023-04-04T15:40:29.579Z,4.80
2023-04-04T15:41:22.634Z,6.20
2023-04-04T15:42:37.972Z,3.90
2023-04-04T15:44:09.013Z,6.90
2023-04-04T15:45:24.531Z,6.30
2023-04-04T15:46:47.123Z,10.10
2023-04-04T15:48:56.091Z,8.10
2023-04-04T15:49:58.834Z,8.50
2023-04-04T15:50:55.891Z,12.50
2023-04-04T15:52:21.125Z,11.80
2023-04-04T15:53:25.356Z,9.80
2023-04-04T15:54:57.927Z,8.40
2023-04-04T15:56:20.239Z,10.10
2023-04-04T15:57:26.623Z,8.00
2023-04-04T15:58:53.152Z,8.30
2023-04-04T16:00:14.528Z,10.30
2023-04-04T16:01:31.186Z,9.80
2023-04-04T16:02:36.773Z,10.10
2023-04-04T16:03:28.365Z,11.70
2023-04-04T16:04:11.609Z,10.70
2023-04-04T16:05:18.621Z,7.60
2023-04-04T16:06:40.406Z,8.40
2023-04-04T16:07:53.623Z,6.90
2023-04-04T16:08:57.165Z,7.40
2023-04-04T16:10:12.547Z,9.70
2023-04-04T16:11:27.813Z,7.40
2023-04-04T16:12:33.264Z,6.00
2023-04-04T16:13:46.712Z,7.10
2023-04-04T16:15:18.448Z,8.30
2023-04-04T16:16:41.087Z,7.20
2023-04-04T16:18:58.827Z,6.50
2023-04-04T16:19:53.769Z,7.60
2023-04-04T16:21:08.574Z,9.50
2023-04-04T16:22:20.974Z,7.20
2023-04-04T16:23:43.535Z,7.50
2023-04-04T16:24:54.483Z,7.80
2023-04-04T16:25:54.699Z,8.70
2023-04-04T16:26:39.821Z,9.50
2023-04-04T16:27:32.155Z,7.20
2023-04-04T16:28:53.259Z,8.90
2023-04-04T16:30:01.046Z,6.90
2023-04-04T16:31:03.546Z,6.50
2023-04-04T16:32:06.047Z,6.70
2023-04-04T16:33:28.823Z,5.80
2023-04-04T16:34:37.643Z,7.40
2023-04-04T16:35:37.891Z,7.90
2023-04-04T16:36:45.911Z,9.90
2023-04-04T16:38:08.639Z,8.50
2023-04-04T16:39:46.671Z,11.20
2023-04-04T16:40:32.582Z,10.60
2023-04-04T16:42:04.032Z,13.20
2023-04-04T16:42:47.675Z,12.00
2023-04-04T16:43:32.284Z,9.80
2023-04-04T16:44:19.979Z,10.60
2023-04-04T16:45:07.642Z,12.90
2023-04-04T16:45:53.876Z,11.20
2023-04-04T16:47:01.819Z,10.00
2023-04-04T16:48:01.277Z,11.80